sensor_id;sensor_type;location;lat;lon;timestamp;temperature;humidity
22635;DHT22;11484;50.858;4.384;2023-09-12T00:01:11;23.60;99.90
22635;DHT22;11484;50.858;4.384;2023-09-12T00:03:37;23.60;99.90
22635;DHT22;11484;50.858;4.384;2023-09-12T00:06:03;23.60;99.90
22635;DHT22;11484;50.858;4.384;2023-09-12T00:08:29;23.60;99.90
22635;DHT22;11484;50.858;4.384;2023-09-12T00:11:22;23.60;99.90
22635;DHT22;11484;50.858;4.384;2023-09-12T00:13:51;23.50;99.90
22635;DHT22;11484;50.858;4.384;2023-09-12T00:16:16;23.50;99.90
22635;DHT22;11484;50.858;4.384;2023-09-12T00:18:42;23.50;99.90
22635;DHT22;11484;50.858;4.384;2023-09-12T00:21:08;23.50;99.90
22635;DHT22;11484;50.858;4.384;2023-09-12T00:23:34;23.50;99.90
22635;DHT22;11484;50.858;4.384;2023-09-12T00:26:00;23.50;99.90
22635;DHT22;11484;50.858;4.384;2023-09-12T00:28:25;23.40;99.90
22635;DHT22;11484;50.858;4.384;2023-09-12T00:30:52;23.50;99.90
22635;DHT22;11484;50.858;4.384;2023-09-12T00:33:17;23.50;99.90
22635;DHT22;11484;50.858;4.384;2023-09-12T00:35:44;23.50;99.90
22635;DHT22;11484;50.858;4.384;2023-09-12T00:38:10;23.60;99.90
22635;DHT22;11484;50.858;4.384;2023-09-12T00:40:36;23.60;99.90
22635;DHT22;11484;50.858;4.384;2023-09-12T00:43:03;23.60;99.90
22635;DHT22;11484;50.858;4.384;2023-09-12T00:45:29;23.70;99.90
22635;DHT22;11484;50.858;4.384;2023-09-12T00:47:57;23.70;99.90
22635;DHT22;11484;50.858;4.384;2023-09-12T00:50:24;23.70;99.90
22635;DHT22;11484;50.858;4.384;2023-09-12T00:52:50;23.70;99.90
22635;DHT22;11484;50.858;4.384;2023-09-12T00:55:17;23.60;99.90
22635;DHT22;11484;50.858;4.384;2023-09-12T00:57:42;23.60;99.90
22635;DHT22;11484;50.858;4.384;2023-09-12T01:00:11;23.60;99.90
22635;DHT22;11484;50.858;4.384;2023-09-12T01:02:42;23.60;99.90
22635;DHT22;11484;50.858;4.384;2023-09-12T01:05:09;23.60;99.90
22635;DHT22;11484;50.858;4.384;2023-09-12T01:07:36;23.60;99.90
22635;DHT22;11484;50.858;4.384;2023-09-12T01:10:02;23.60;99.90
22635;DHT22;11484;50.858;4.384;2023-09-12T01:12:29;23.50;99.90
22635;DHT22;11484;50.858;4.384;2023-09-12T01:14:55;23.40;99.90
22635;DHT22;11484;50.858;4.384;2023-09-12T01:17:22;23.40;99.90
22635;DHT22;11484;50.858;4.384;2023-09-12T01:19:47;23.40;99.90
22635;DHT22;11484;50.858;4.384;2023-09-12T01:29:51;23.30;99.90
22635;DHT22;11484;50.858;4.384;2023-09-12T01:32:19;23.40;99.90
22635;DHT22;11484;50.858;4.384;2023-09-12T01:34:47;23.30;99.90
22635;DHT22;11484;50.858;4.384;2023-09-12T01:37:13;23.40;99.90
22635;DHT22;11484;50.858;4.384;2023-09-12T01:39:41;23.30;99.90
22635;DHT22;11484;50.858;4.384;2023-09-12T01:42:10;23.30;99.90
22635;DHT22;11484;50.858;4.384;2023-09-12T01:44:37;23.40;99.90
22635;DHT22;11484;50.858;4.384;2023-09-12T01:47:05;23.40;99.90
22635;DHT22;11484;50.858;4.384;2023-09-12T01:49:33;23.40;99.90
22635;DHT22;11484;50.858;4.384;2023-09-12T01:51:59;23.30;99.90
22635;DHT22;11484;50.858;4.384;2023-09-12T01:54:26;23.40;99.90
22635;DHT22;11484;50.858;4.384;2023-09-12T01:56:54;23.30;99.90
22635;DHT22;11484;50.858;4.384;2023-09-12T01:59:23;23.30;99.90
22635;DHT22;11484;50.858;4.384;2023-09-12T02:01:50;23.20;99.90
22635;DHT22;11484;50.858;4.384;2023-09-12T02:04:15;23.20;99.90
22635;DHT22;11484;50.858;4.384;2023-09-12T02:06:41;23.10;99.90
22635;DHT22;11484;50.858;4.384;2023-09-12T02:09:07;23.10;99.90
22635;DHT22;11484;50.858;4.384;2023-09-12T02:11:32;23.00;99.90
22635;DHT22;11484;50.858;4.384;2023-09-12T02:13:58;23.00;99.90
22635;DHT22;11484;50.858;4.384;2023-09-12T02:16:24;22.90;99.90
22635;DHT22;11484;50.858;4.384;2023-09-12T02:18:49;22.90;99.90
22635;DHT22;11484;50.858;4.384;2023-09-12T02:21:15;22.90;99.90
22635;DHT22;11484;50.858;4.384;2023-09-12T02:23:41;22.80;99.90
22635;DHT22;11484;50.858;4.384;2023-09-12T02:26:07;22.70;99.90
22635;DHT22;11484;50.858;4.384;2023-09-12T02:28:33;22.70;99.90
22635;DHT22;11484;50.858;4.384;2023-09-12T02:30:59;22.70;99.90
22635;DHT22;11484;50.858;4.384;2023-09-12T02:33:24;22.60;99.90
22635;DHT22;11484;50.858;4.384;2023-09-12T02:35:50;22.50;99.90
22635;DHT22;11484;50.858;4.384;2023-09-12T02:38:17;22.50;99.90
22635;DHT22;11484;50.858;4.384;2023-09-12T02:40:43;22.50;99.90
22635;DHT22;11484;50.858;4.384;2023-09-12T02:43:08;22.40;99.90
22635;DHT22;11484;50.858;4.384;2023-09-12T02:45:34;22.40;99.90
22635;DHT22;11484;50.858;4.384;2023-09-12T02:48:00;22.40;99.90
22635;DHT22;11484;50.858;4.384;2023-09-12T02:50:26;22.40;99.90
22635;DHT22;11484;50.858;4.384;2023-09-12T02:52:52;22.40;99.90
22635;DHT22;11484;50.858;4.384;2023-09-12T02:55:17;22.30;99.90
22635;DHT22;11484;50.858;4.384;2023-09-12T02:57:43;22.40;99.90
22635;DHT22;11484;50.858;4.384;2023-09-12T03:00:09;22.40;99.90
22635;DHT22;11484;50.858;4.384;2023-09-12T03:02:36;22.30;99.90
22635;DHT22;11484;50.858;4.384;2023-09-12T03:05:02;22.30;99.90
22635;DHT22;11484;50.858;4.384;2023-09-12T03:07:29;22.30;99.90
22635;DHT22;11484;50.858;4.384;2023-09-12T03:09:56;22.30;99.90
22635;DHT22;11484;50.858;4.384;2023-09-12T03:12:21;22.30;99.90
22635;DHT22;11484;50.858;4.384;2023-09-12T03:14:47;22.40;99.90
22635;DHT22;11484;50.858;4.384;2023-09-12T03:17:14;22.40;99.90
22635;DHT22;11484;50.858;4.384;2023-09-12T03:19:39;22.40;99.90
22635;DHT22;11484;50.858;4.384;2023-09-12T03:22:05;22.50;99.90
22635;DHT22;11484;50.858;4.384;2023-09-12T03:24:31;22.50;99.90
22635;DHT22;11484;50.858;4.384;2023-09-12T03:26:56;22.70;99.90
22635;DHT22;11484;50.858;4.384;2023-09-12T03:29:22;22.70;99.90
22635;DHT22;11484;50.858;4.384;2023-09-12T03:31:48;22.70;99.90
22635;DHT22;11484;50.858;4.384;2023-09-12T03:34:14;22.70;99.90
22635;DHT22;11484;50.858;4.384;2023-09-12T03:36:39;22.70;99.90
22635;DHT22;11484;50.858;4.384;2023-09-12T03:39:05;22.70;99.90
22635;DHT22;11484;50.858;4.384;2023-09-12T03:41:34;22.60;99.90
22635;DHT22;11484;50.858;4.384;2023-09-12T03:44:00;22.70;99.90
22635;DHT22;11484;50.858;4.384;2023-09-12T03:46:26;22.80;99.90
22635;DHT22;11484;50.858;4.384;2023-09-12T03:48:51;22.80;99.90
22635;DHT22;11484;50.858;4.384;2023-09-12T03:51:17;22.80;99.90
22635;DHT22;11484;50.858;4.384;2023-09-12T03:53:42;22.90;99.90
22635;DHT22;11484;50.858;4.384;2023-09-12T03:56:08;22.90;99.90
22635;DHT22;11484;50.858;4.384;2023-09-12T03:58:38;22.80;99.90
22635;DHT22;11484;50.858;4.384;2023-09-12T04:01:04;22.80;99.90
22635;DHT22;11484;50.858;4.384;2023-09-12T04:03:29;22.80;99.90
22635;DHT22;11484;50.858;4.384;2023-09-12T04:05:55;22.80;99.90
22635;DHT22;11484;50.858;4.384;2023-09-12T04:08:21;22.70;99.90
22635;DHT22;11484;50.858;4.384;2023-09-12T04:10:47;22.70;99.90
22635;DHT22;11484;50.858;4.384;2023-09-12T04:13:12;22.70;99.90
22635;DHT22;11484;50.858;4.384;2023-09-12T04:15:38;22.50;99.90
22635;DHT22;11484;50.858;4.384;2023-09-12T04:18:04;22.40;99.90
22635;DHT22;11484;50.858;4.384;2023-09-12T04:20:32;22.30;99.90
22635;DHT22;11484;50.858;4.384;2023-09-12T04:23:00;22.20;99.90
22635;DHT22;11484;50.858;4.384;2023-09-12T04:25:25;22.30;99.90
22635;DHT22;11484;50.858;4.384;2023-09-12T04:27:52;22.40;99.90
22635;DHT22;11484;50.858;4.384;2023-09-12T04:30:18;22.50;99.90
22635;DHT22;11484;50.858;4.384;2023-09-12T04:32:43;22.60;99.90
22635;DHT22;11484;50.858;4.384;2023-09-12T04:35:09;22.70;99.90
22635;DHT22;11484;50.858;4.384;2023-09-12T04:37:35;22.70;99.90
22635;DHT22;11484;50.858;4.384;2023-09-12T04:40:01;22.80;99.90
22635;DHT22;11484;50.858;4.384;2023-09-12T04:42:30;22.70;99.90
22635;DHT22;11484;50.858;4.384;2023-09-12T04:44:56;22.80;99.90
22635;DHT22;11484;50.858;4.384;2023-09-12T04:47:22;22.80;99.90
22635;DHT22;11484;50.858;4.384;2023-09-12T04:49:49;22.70;99.90
22635;DHT22;11484;50.858;4.384;2023-09-12T04:52:15;22.70;99.90
22635;DHT22;11484;50.858;4.384;2023-09-12T04:54:41;22.70;99.90
22635;DHT22;11484;50.858;4.384;2023-09-12T04:57:07;22.80;99.90
22635;DHT22;11484;50.858;4.384;2023-09-12T04:59:33;22.80;99.90
22635;DHT22;11484;50.858;4.384;2023-09-12T05:01:59;22.70;99.90
22635;DHT22;11484;50.858;4.384;2023-09-12T05:04:25;22.80;99.90
22635;DHT22;11484;50.858;4.384;2023-09-12T05:06:51;22.80;99.90
22635;DHT22;11484;50.858;4.384;2023-09-12T05:09:16;22.70;99.90
22635;DHT22;11484;50.858;4.384;2023-09-12T05:11:42;22.70;99.90
22635;DHT22;11484;50.858;4.384;2023-09-12T05:14:09;22.70;99.90
22635;DHT22;11484;50.858;4.384;2023-09-12T05:16:35;22.70;99.90
22635;DHT22;11484;50.858;4.384;2023-09-12T05:19:01;22.70;99.90
22635;DHT22;11484;50.858;4.384;2023-09-12T05:21:26;22.50;99.90
22635;DHT22;11484;50.858;4.384;2023-09-12T05:23:52;22.40;99.90
22635;DHT22;11484;50.858;4.384;2023-09-12T05:26:18;22.40;99.90
22635;DHT22;11484;50.858;4.384;2023-09-12T05:28:44;22.50;99.90
22635;DHT22;11484;50.858;4.384;2023-09-12T05:31:09;22.50;99.90
22635;DHT22;11484;50.858;4.384;2023-09-12T05:33:35;22.50;99.90
22635;DHT22;11484;50.858;4.384;2023-09-12T05:36:04;22.60;99.90
22635;DHT22;11484;50.858;4.384;2023-09-12T05:38:33;22.70;99.90
22635;DHT22;11484;50.858;4.384;2023-09-12T05:40:59;22.70;99.90
22635;DHT22;11484;50.858;4.384;2023-09-12T05:43:25;22.80;99.90
22635;DHT22;11484;50.858;4.384;2023-09-12T05:45:50;22.80;99.90
22635;DHT22;11484;50.858;4.384;2023-09-12T05:48:16;22.90;99.90
22635;DHT22;11484;50.858;4.384;2023-09-12T05:50:43;23.00;99.90
22635;DHT22;11484;50.858;4.384;2023-09-12T05:53:09;23.10;99.90
22635;DHT22;11484;50.858;4.384;2023-09-12T05:55:35;23.00;99.90
22635;DHT22;11484;50.858;4.384;2023-09-12T05:58:01;22.90;99.90
22635;DHT22;11484;50.858;4.384;2023-09-12T06:00:30;22.70;99.90
22635;DHT22;11484;50.858;4.384;2023-09-12T06:02:56;22.50;99.90
22635;DHT22;11484;50.858;4.384;2023-09-12T06:05:21;22.30;99.90
22635;DHT22;11484;50.858;4.384;2023-09-12T06:07:47;22.20;99.90
22635;DHT22;11484;50.858;4.384;2023-09-12T06:10:13;22.20;99.90
22635;DHT22;11484;50.858;4.384;2023-09-12T06:12:40;22.00;99.90
22635;DHT22;11484;50.858;4.384;2023-09-12T06:15:06;21.90;99.90
22635;DHT22;11484;50.858;4.384;2023-09-12T06:17:32;21.90;99.90
22635;DHT22;11484;50.858;4.384;2023-09-12T06:19:58;21.80;99.90
22635;DHT22;11484;50.858;4.384;2023-09-12T06:22:24;21.70;99.90
22635;DHT22;11484;50.858;4.384;2023-09-12T06:24:51;21.70;99.90
22635;DHT22;11484;50.858;4.384;2023-09-12T06:27:17;21.90;99.90
22635;DHT22;11484;50.858;4.384;2023-09-12T06:29:48;22.20;99.90
22635;DHT22;11484;50.858;4.384;2023-09-12T06:32:17;22.50;99.90
22635;DHT22;11484;50.858;4.384;2023-09-12T06:34:44;22.80;99.90
22635;DHT22;11484;50.858;4.384;2023-09-12T06:37:11;22.90;99.90
22635;DHT22;11484;50.858;4.384;2023-09-12T06:39:37;22.90;99.90
22635;DHT22;11484;50.858;4.384;2023-09-12T06:42:03;22.90;99.90
22635;DHT22;11484;50.858;4.384;2023-09-12T06:44:29;23.00;99.90
22635;DHT22;11484;50.858;4.384;2023-09-12T06:46:54;23.00;99.90
22635;DHT22;11484;50.858;4.384;2023-09-12T06:49:23;23.30;99.90
22635;DHT22;11484;50.858;4.384;2023-09-12T06:51:50;23.30;99.90
22635;DHT22;11484;50.858;4.384;2023-09-12T06:54:19;23.50;99.90
22635;DHT22;11484;50.858;4.384;2023-09-12T06:56:44;23.60;99.90
22635;DHT22;11484;50.858;4.384;2023-09-12T06:59:11;23.80;99.90
22635;DHT22;11484;50.858;4.384;2023-09-12T07:01:38;23.90;99.90
22635;DHT22;11484;50.858;4.384;2023-09-12T07:04:03;24.00;99.90
22635;DHT22;11484;50.858;4.384;2023-09-12T07:06:29;24.30;99.90
22635;DHT22;11484;50.858;4.384;2023-09-12T07:08:55;24.40;99.90
22635;DHT22;11484;50.858;4.384;2023-09-12T07:11:21;24.50;99.90
22635;DHT22;11484;50.858;4.384;2023-09-12T07:13:47;24.60;99.90
22635;DHT22;11484;50.858;4.384;2023-09-12T07:16:12;24.60;99.90
22635;DHT22;11484;50.858;4.384;2023-09-12T07:18:38;24.50;99.90
22635;DHT22;11484;50.858;4.384;2023-09-12T07:21:05;24.50;99.90
22635;DHT22;11484;50.858;4.384;2023-09-12T07:23:31;24.40;99.90
22635;DHT22;11484;50.858;4.384;2023-09-12T07:25:58;24.40;99.90
22635;DHT22;11484;50.858;4.384;2023-09-12T07:28:24;24.40;99.90
22635;DHT22;11484;50.858;4.384;2023-09-12T07:30:50;24.40;99.90
22635;DHT22;11484;50.858;4.384;2023-09-12T07:33:16;24.30;99.90
22635;DHT22;11484;50.858;4.384;2023-09-12T07:35:41;24.50;99.90
22635;DHT22;11484;50.858;4.384;2023-09-12T07:38:07;24.70;99.90
22635;DHT22;11484;50.858;4.384;2023-09-12T07:40:33;24.90;99.90
22635;DHT22;11484;50.858;4.384;2023-09-12T07:42:58;25.10;99.90
22635;DHT22;11484;50.858;4.384;2023-09-12T07:45:24;25.20;99.90
22635;DHT22;11484;50.858;4.384;2023-09-12T07:47:50;25.30;99.90
22635;DHT22;11484;50.858;4.384;2023-09-12T07:50:16;25.40;99.90
22635;DHT22;11484;50.858;4.384;2023-09-12T07:52:42;25.50;99.90
22635;DHT22;11484;50.858;4.384;2023-09-12T07:55:08;25.70;99.90
22635;DHT22;11484;50.858;4.384;2023-09-12T07:57:34;25.80;99.90
22635;DHT22;11484;50.858;4.384;2023-09-12T08:00:00;26.00;99.90
22635;DHT22;11484;50.858;4.384;2023-09-12T08:02:26;26.00;99.90
22635;DHT22;11484;50.858;4.384;2023-09-12T08:04:52;26.10;99.90
22635;DHT22;11484;50.858;4.384;2023-09-12T08:07:20;26.20;99.90
22635;DHT22;11484;50.858;4.384;2023-09-12T08:09:57;26.40;99.90
22635;DHT22;11484;50.858;4.384;2023-09-12T08:12:24;26.40;99.90
22635;DHT22;11484;50.858;4.384;2023-09-12T08:14:55;26.50;99.90
22635;DHT22;11484;50.858;4.384;2023-09-12T08:17:21;26.60;99.90
22635;DHT22;11484;50.858;4.384;2023-09-12T08:19:48;26.70;99.90
22635;DHT22;11484;50.858;4.384;2023-09-12T08:22:14;26.80;99.90
22635;DHT22;11484;50.858;4.384;2023-09-12T08:24:41;26.90;99.90
22635;DHT22;11484;50.858;4.384;2023-09-12T08:27:07;26.90;99.90
22635;DHT22;11484;50.858;4.384;2023-09-12T08:29:33;26.90;99.90
22635;DHT22;11484;50.858;4.384;2023-09-12T08:31:59;27.00;99.90
22635;DHT22;11484;50.858;4.384;2023-09-12T08:34:25;27.50;99.90
22635;DHT22;11484;50.858;4.384;2023-09-12T08:36:51;27.80;99.90
22635;DHT22;11484;50.858;4.384;2023-09-12T08:39:22;27.80;99.90
22635;DHT22;11484;50.858;4.384;2023-09-12T08:41:50;27.90;99.90
22635;DHT22;11484;50.858;4.384;2023-09-12T08:44:16;27.70;99.70
22635;DHT22;11484;50.858;4.384;2023-09-12T08:46:43;27.80;99.90
22635;DHT22;11484;50.858;4.384;2023-09-12T08:49:10;28.30;99.70
22635;DHT22;11484;50.858;4.384;2023-09-12T08:51:39;29.00;98.60
22635;DHT22;11484;50.858;4.384;2023-09-12T08:54:06;29.70;97.60
22635;DHT22;11484;50.858;4.384;2023-09-12T08:56:34;30.60;96.50
22635;DHT22;11484;50.858;4.384;2023-09-12T08:59:01;31.50;94.40
22635;DHT22;11484;50.858;4.384;2023-09-12T09:01:30;32.10;92.70
22635;DHT22;11484;50.858;4.384;2023-09-12T09:03:57;32.40;91.80
22635;DHT22;11484;50.858;4.384;2023-09-12T09:06:23;32.60;90.90
22635;DHT22;11484;50.858;4.384;2023-09-12T09:08:49;32.50;90.60
22635;DHT22;11484;50.858;4.384;2023-09-12T09:11:19;31.80;90.80
22635;DHT22;11484;50.858;4.384;2023-09-12T09:13:44;31.60;91.50
22635;DHT22;11484;50.858;4.384;2023-09-12T09:16:15;31.30;91.50
22635;DHT22;11484;50.858;4.384;2023-09-12T09:18:59;31.20;91.60
22635;DHT22;11484;50.858;4.384;2023-09-12T09:21:34;31.20;91.80
22635;DHT22;11484;50.858;4.384;2023-09-12T09:24:06;31.70;91.10
22635;DHT22;11484;50.858;4.384;2023-09-12T09:26:46;32.10;90.20
22635;DHT22;11484;50.858;4.384;2023-09-12T09:29:16;32.20;89.90
22635;DHT22;11484;50.858;4.384;2023-09-12T09:31:44;32.40;88.80
22635;DHT22;11484;50.858;4.384;2023-09-12T09:34:16;32.30;89.00
22635;DHT22;11484;50.858;4.384;2023-09-12T09:36:48;32.10;89.30
22635;DHT22;11484;50.858;4.384;2023-09-12T09:39:14;32.20;88.40
22635;DHT22;11484;50.858;4.384;2023-09-12T09:41:42;32.30;87.90
22635;DHT22;11484;50.858;4.384;2023-09-12T09:44:08;32.30;87.30
22635;DHT22;11484;50.858;4.384;2023-09-12T09:46:36;32.00;88.20
22635;DHT22;11484;50.858;4.384;2023-09-12T09:49:02;31.30;89.60
22635;DHT22;11484;50.858;4.384;2023-09-12T09:51:30;30.70;90.40
22635;DHT22;11484;50.858;4.384;2023-09-12T09:53:57;30.70;91.00
22635;DHT22;11484;50.858;4.384;2023-09-12T09:56:24;31.00;90.80
22635;DHT22;11484;50.858;4.384;2023-09-12T09:58:55;31.30;90.80
22635;DHT22;11484;50.858;4.384;2023-09-12T10:01:28;31.50;90.40
22635;DHT22;11484;50.858;4.384;2023-09-12T10:03:58;31.40;90.50
22635;DHT22;11484;50.858;4.384;2023-09-12T10:06:26;31.60;90.40
22635;DHT22;11484;50.858;4.384;2023-09-12T10:08:53;31.80;90.00
22635;DHT22;11484;50.858;4.384;2023-09-12T10:11:24;31.90;89.40
22635;DHT22;11484;50.858;4.384;2023-09-12T10:13:53;31.80;89.00
22635;DHT22;11484;50.858;4.384;2023-09-12T10:16:23;31.50;88.60
22635;DHT22;11484;50.858;4.384;2023-09-12T10:21:31;30.90;90.80
22635;DHT22;11484;50.858;4.384;2023-09-12T10:23:58;31.20;90.70
22635;DHT22;11484;50.858;4.384;2023-09-12T10:26:25;31.30;90.30
22635;DHT22;11484;50.858;4.384;2023-09-12T10:28:51;31.20;90.40
22635;DHT22;11484;50.858;4.384;2023-09-12T10:31:17;31.20;90.60
22635;DHT22;11484;50.858;4.384;2023-09-12T10:33:44;31.00;90.50
22635;DHT22;11484;50.858;4.384;2023-09-12T10:36:12;30.80;90.70
22635;DHT22;11484;50.858;4.384;2023-09-12T10:38:44;30.60;91.10
22635;DHT22;11484;50.858;4.384;2023-09-12T10:41:12;30.30;91.50
22635;DHT22;11484;50.858;4.384;2023-09-12T10:43:40;30.10;91.80
22635;DHT22;11484;50.858;4.384;2023-09-12T10:46:06;30.00;92.10
22635;DHT22;11484;50.858;4.384;2023-09-12T10:48:33;29.90;92.20
22635;DHT22;11484;50.858;4.384;2023-09-12T10:51:01;29.80;92.60
22635;DHT22;11484;50.858;4.384;2023-09-12T10:53:30;29.60;92.60
22635;DHT22;11484;50.858;4.384;2023-09-12T10:56:03;29.40;92.80
22635;DHT22;11484;50.858;4.384;2023-09-12T11:01:33;28.90;93.50
22635;DHT22;11484;50.858;4.384;2023-09-12T11:04:33;29.00;93.70
22635;DHT22;11484;50.858;4.384;2023-09-12T11:06:54;29.00;93.40
22635;DHT22;11484;50.858;4.384;2023-09-12T11:09:24;29.00;93.50
22635;DHT22;11484;50.858;4.384;2023-09-12T11:12:03;28.90;93.40
22635;DHT22;11484;50.858;4.384;2023-09-12T11:14:29;28.80;93.60
22635;DHT22;11484;50.858;4.384;2023-09-12T11:19:44;28.70;93.30
22635;DHT22;11484;50.858;4.384;2023-09-12T11:22:28;28.70;93.50
22635;DHT22;11484;50.858;4.384;2023-09-12T11:24:55;28.70;93.10
22635;DHT22;11484;50.858;4.384;2023-09-12T11:27:25;28.60;93.70
22635;DHT22;11484;50.858;4.384;2023-09-12T11:30:03;28.60;93.80
22635;DHT22;11484;50.858;4.384;2023-09-12T11:32:35;28.60;93.80
22635;DHT22;11484;50.858;4.384;2023-09-12T11:35:06;28.60;93.90
22635;DHT22;11484;50.858;4.384;2023-09-12T11:37:32;28.60;93.80
22635;DHT22;11484;50.858;4.384;2023-09-12T11:39:59;28.60;92.90
22635;DHT22;11484;50.858;4.384;2023-09-12T11:42:25;28.60;93.50
22635;DHT22;11484;50.858;4.384;2023-09-12T11:44:51;28.50;93.80
22635;DHT22;11484;50.858;4.384;2023-09-12T11:47:17;28.50;94.20
22635;DHT22;11484;50.858;4.384;2023-09-12T11:49:43;28.60;94.30
22635;DHT22;11484;50.858;4.384;2023-09-12T11:52:13;28.50;93.90
22635;DHT22;11484;50.858;4.384;2023-09-12T11:54:43;28.50;93.90
22635;DHT22;11484;50.858;4.384;2023-09-12T11:57:12;28.50;93.90
22635;DHT22;11484;50.858;4.384;2023-09-12T11:59:40;28.40;94.00
22635;DHT22;11484;50.858;4.384;2023-09-12T12:02:08;28.30;94.00
22635;DHT22;11484;50.858;4.384;2023-09-12T12:04:34;28.20;93.80
22635;DHT22;11484;50.858;4.384;2023-09-12T12:07:01;28.30;94.10
22635;DHT22;11484;50.858;4.384;2023-09-12T12:09:27;28.20;93.80
22635;DHT22;11484;50.858;4.384;2023-09-12T12:11:53;28.30;94.20
22635;DHT22;11484;50.858;4.384;2023-09-12T12:14:19;28.50;94.10
22635;DHT22;11484;50.858;4.384;2023-09-12T12:16:46;28.50;93.80
22635;DHT22;11484;50.858;4.384;2023-09-12T12:19:13;28.60;93.60
22635;DHT22;11484;50.858;4.384;2023-09-12T12:21:42;28.70;93.40
22635;DHT22;11484;50.858;4.384;2023-09-12T12:24:10;28.70;92.70
22635;DHT22;11484;50.858;4.384;2023-09-12T12:26:37;28.80;92.90
22635;DHT22;11484;50.858;4.384;2023-09-12T12:29:06;28.80;93.30
22635;DHT22;11484;50.858;4.384;2023-09-12T12:31:31;28.80;93.60
22635;DHT22;11484;50.858;4.384;2023-09-12T12:33:57;28.80;93.10
22635;DHT22;11484;50.858;4.384;2023-09-12T12:36:25;28.80;92.30
22635;DHT22;11484;50.858;4.384;2023-09-12T12:38:52;28.70;93.00
22635;DHT22;11484;50.858;4.384;2023-09-12T12:41:27;28.60;93.60
22635;DHT22;11484;50.858;4.384;2023-09-12T12:43:56;28.40;93.40
22635;DHT22;11484;50.858;4.384;2023-09-12T12:46:24;28.40;93.60
22635;DHT22;11484;50.858;4.384;2023-09-12T12:48:50;28.20;93.60
22635;DHT22;11484;50.858;4.384;2023-09-12T12:51:26;28.10;93.80
22635;DHT22;11484;50.858;4.384;2023-09-12T12:53:53;28.20;93.70
22635;DHT22;11484;50.858;4.384;2023-09-12T12:56:21;28.00;93.70
22635;DHT22;11484;50.858;4.384;2023-09-12T12:58:56;28.00;93.70
22635;DHT22;11484;50.858;4.384;2023-09-12T13:01:23;27.90;93.30
22635;DHT22;11484;50.858;4.384;2023-09-12T13:03:50;27.90;93.70
22635;DHT22;11484;50.858;4.384;2023-09-12T13:06:17;28.00;93.70
22635;DHT22;11484;50.858;4.384;2023-09-12T13:08:48;28.00;93.50
22635;DHT22;11484;50.858;4.384;2023-09-12T13:11:15;28.10;93.80
22635;DHT22;11484;50.858;4.384;2023-09-12T13:13:42;28.10;93.80
22635;DHT22;11484;50.858;4.384;2023-09-12T13:16:09;28.10;93.70
22635;DHT22;11484;50.858;4.384;2023-09-12T13:18:36;28.20;93.60
22635;DHT22;11484;50.858;4.384;2023-09-12T13:21:02;28.20;93.50
22635;DHT22;11484;50.858;4.384;2023-09-12T13:23:28;28.10;93.40
22635;DHT22;11484;50.858;4.384;2023-09-12T13:25:55;28.00;93.50
22635;DHT22;11484;50.858;4.384;2023-09-12T13:28:21;28.00;93.60
22635;DHT22;11484;50.858;4.384;2023-09-12T13:30:54;27.90;93.50
22635;DHT22;11484;50.858;4.384;2023-09-12T13:33:21;27.90;93.50
22635;DHT22;11484;50.858;4.384;2023-09-12T13:35:49;27.90;93.30
22635;DHT22;11484;50.858;4.384;2023-09-12T13:38:16;27.80;93.10
22635;DHT22;11484;50.858;4.384;2023-09-12T13:40:45;27.80;93.20
22635;DHT22;11484;50.858;4.384;2023-09-12T13:43:12;27.70;92.90
22635;DHT22;11484;50.858;4.384;2023-09-12T13:45:38;27.70;92.90
22635;DHT22;11484;50.858;4.384;2023-09-12T13:48:04;27.70;93.10
22635;DHT22;11484;50.858;4.384;2023-09-12T13:50:31;27.70;93.30
22635;DHT22;11484;50.858;4.384;2023-09-12T13:53:01;27.60;93.70
22635;DHT22;11484;50.858;4.384;2023-09-12T13:55:33;27.60;93.80
22635;DHT22;11484;50.858;4.384;2023-09-12T13:58:02;27.50;94.00
22635;DHT22;11484;50.858;4.384;2023-09-12T14:00:29;27.50;93.80
22635;DHT22;11484;50.858;4.384;2023-09-12T14:02:55;27.50;93.90
22635;DHT22;11484;50.858;4.384;2023-09-12T14:05:21;27.50;94.20
22635;DHT22;11484;50.858;4.384;2023-09-12T14:07:47;27.40;94.40
22635;DHT22;11484;50.858;4.384;2023-09-12T14:10:13;27.30;94.60
22635;DHT22;11484;50.858;4.384;2023-09-12T14:12:39;27.30;94.90
22635;DHT22;11484;50.858;4.384;2023-09-12T14:15:05;27.20;95.30
22635;DHT22;11484;50.858;4.384;2023-09-12T14:17:32;27.00;95.50
22635;DHT22;11484;50.858;4.384;2023-09-12T14:19:58;27.10;95.60
22635;DHT22;11484;50.858;4.384;2023-09-12T14:22:24;27.10;95.20
22635;DHT22;11484;50.858;4.384;2023-09-12T14:24:49;27.10;95.40
22635;DHT22;11484;50.858;4.384;2023-09-12T14:27:15;27.00;95.60
22635;DHT22;11484;50.858;4.384;2023-09-12T14:29:41;26.90;96.00
22635;DHT22;11484;50.858;4.384;2023-09-12T14:32:11;26.80;96.10
22635;DHT22;11484;50.858;4.384;2023-09-12T14:34:37;26.80;96.60
22635;DHT22;11484;50.858;4.384;2023-09-12T14:37:03;26.70;96.40
22635;DHT22;11484;50.858;4.384;2023-09-12T14:39:30;26.60;96.60
22635;DHT22;11484;50.858;4.384;2023-09-12T14:41:56;26.70;96.70
22635;DHT22;11484;50.858;4.384;2023-09-12T14:44:23;26.70;96.50
22635;DHT22;11484;50.858;4.384;2023-09-12T14:46:48;26.80;96.50
22635;DHT22;11484;50.858;4.384;2023-09-12T14:49:15;26.70;96.50
22635;DHT22;11484;50.858;4.384;2023-09-12T14:51:42;26.80;96.30
22635;DHT22;11484;50.858;4.384;2023-09-12T14:54:09;26.80;96.40
22635;DHT22;11484;50.858;4.384;2023-09-12T14:56:35;26.80;96.20
22635;DHT22;11484;50.858;4.384;2023-09-12T14:59:03;26.70;96.20
22635;DHT22;11484;50.858;4.384;2023-09-12T15:01:29;26.60;96.20
22635;DHT22;11484;50.858;4.384;2023-09-12T15:03:55;26.50;96.50
22635;DHT22;11484;50.858;4.384;2023-09-12T15:06:20;26.60;96.40
22635;DHT22;11484;50.858;4.384;2023-09-12T15:08:47;26.60;96.20
22635;DHT22;11484;50.858;4.384;2023-09-12T15:11:14;26.60;96.20
22635;DHT22;11484;50.858;4.384;2023-09-12T15:13:39;26.50;96.40
22635;DHT22;11484;50.858;4.384;2023-09-12T15:16:05;26.50;96.60
22635;DHT22;11484;50.858;4.384;2023-09-12T15:18:31;26.40;96.80
22635;DHT22;11484;50.858;4.384;2023-09-12T15:20:57;26.40;96.70
22635;DHT22;11484;50.858;4.384;2023-09-12T15:23:23;26.40;96.80
22635;DHT22;11484;50.858;4.384;2023-09-12T15:25:50;26.40;97.00
22635;DHT22;11484;50.858;4.384;2023-09-12T15:28:16;26.40;97.00
22635;DHT22;11484;50.858;4.384;2023-09-12T15:30:42;26.40;96.90
22635;DHT22;11484;50.858;4.384;2023-09-12T15:33:08;26.40;97.10
22635;DHT22;11484;50.858;4.384;2023-09-12T15:35:34;26.30;97.00
22635;DHT22;11484;50.858;4.384;2023-09-12T15:37:59;26.30;97.30
22635;DHT22;11484;50.858;4.384;2023-09-12T15:40:26;26.30;97.60
22635;DHT22;11484;50.858;4.384;2023-09-12T15:42:53;26.20;98.00
22635;DHT22;11484;50.858;4.384;2023-09-12T15:45:18;26.00;98.20